Mount Ulla, North Carolina
Current Conditions -  °F | °C
As of 9:55 AM on Tuesday 21 Oct 2014 (Local Time) from KRUQ Reporting Station
Clear Clear  
Wind Chill: 59°   Ceiling: Unl
Heat Index: 59°   Visibility: 10mi
Dew Point: 52°   Wind: 0mph
Humidity: 77%   Direction: NA
Pressure: 29.95"   Gusts: NA
Location:  35.66°N, 80.73°W
Report Text: KRUQ 211355Z AUTO 00000KT 10SM CLR 15/11 A2995 RMK AO2 T01510111
Loading
Personal Weather Stations






























Interactive Weather Map New forecast layout! Learn more

10-Day Weather Forecast

Advertisements
Track Severe Weather on mobile